Aviation Digital Data Service (ADDS)

Output produced by METARs form (1134 UTC 19 June 2019)
found at http://www.aviationweather.gov/metar/data/
 
TISX 190520Z 1906/2006 06010KT P6SM VCSH SCT030 
     FM191400 11015G22KT P6SM FEW025 SCT050 
     FM192300 08012KT P6SM FEW025 
     FM200000 08012KT P6SM OVC025 
     FM200300 08012KT P6SM FEW030
       
TIST 190520Z 1906/2006 09010KT P6SM VCSH SCT030 
     FM191400 12016KT P6SM FEW025 SCT050 
     FM192300 09010KT P6SM FEW025 
     FM200000 09012KT P6SM SCT025